Weather reports worldwide

Advertisment
Pian Rosa, Italy (16052): temperature & dewpoint: 20.03.2019 20:00:00 - 26.03.2019 20:00:00 (CET)Pian Rosa, Italy (16052): wind speed: 20.03.2019 20:00:00 - 26.03.2019 20:00:00 (CET)Pian Rosa, Italy (16052): wind direction: 20.03.2019 20:00:00 - 26.03.2019 20:00:00 (CET)Pian Rosa, Italy (16052): visibility: 20.03.2019 20:00:00 - 26.03.2019 20:00:00 (CET)Pian Rosa, Italy (16052): sunshine duration: 20.03.2019 20:00:00 - 26.03.2019 20:00:00 (CET)
Date & Time tt [°C] td [°C] ff [km/h] ff [kn] dd vv [km] sd [min]
26.03.2019 20:00:00 -11,0 -22,3 37 20 ENE 10 -
26.03.2019 19:00:00 -11,6 -21,4 37 20 ENE 30 42
26.03.2019 18:00:00 -11,8 -18,2 28 15 NNE 50 60
26.03.2019 17:00:00 -12,4 -14,7 28 15 NNE 60 60
26.03.2019 16:00:00 -12,8 -13,0 18 10 ENE 80 60
26.03.2019 15:00:00 -13,4 -13,5 28 15 NE 80 60
26.03.2019 14:00:00 -13,8 -14,0 18 10 NE 80 60
26.03.2019 13:00:00 -14,6 -14,9 22 12 NE 75 60
26.03.2019 12:00:00 -15,2 -15,6 18 10 NNE 80 60
26.03.2019 11:00:00 -16,0 -16,3 22 12 NNE 80 60
26.03.2019 10:00:00 -16,2 -16,4 28 15 NE 80 60
26.03.2019 09:00:00 -16,6 -16,8 34 18 E 70 36
26.03.2019 08:00:00 -16,8 -17,0 41 22 E 60 -
26.03.2019 07:00:00 -17,0 -17,2 48 26 NE 40 -
26.03.2019 06:00:00 -17,0 -17,2 46 25 NE 10 -
26.03.2019 05:00:00 -17,4 -17,7 55 30 NE 0,6 -
26.03.2019 04:00:00 -17,0 -17,2 55 30 NE - -
26.03.2019 03:00:00 -17,0 -17,2 65 35 NE 0,1 -
26.03.2019 02:00:00 -17,0 -17,2 65 35 NE - -
26.03.2019 01:00:00 -17,0 -17,2 74 40 NE - -
26.03.2019 00:00:00 -17,0 -17,0 83 45 NE - -
25.03.2019 23:00:00 -16,8 -16,8 83 45 NE - -
25.03.2019 22:00:00 -16,8 -16,8 93 50 N - -
25.03.2019 21:00:00 -15,6 -30,0 93 50 NNE - -
25.03.2019 20:00:00 -14,0 -14,0 65 35 N 0,1 -
25.03.2019 19:00:00 -13,0 -13,0 55 30 N 0,5 18
25.03.2019 18:00:00 -12,0 -14,0 65 35 N 60 60
25.03.2019 17:00:00 -11,0 -14,9 65 35 N 60 60
25.03.2019 16:00:00 -10,0 -13,1 46 25 NNE 60 60
25.03.2019 15:00:00 -10,0 -11,3 41 22 NNE 60 60
25.03.2019 14:00:00 -9,2 -13,1 46 25 NNE 75 60
25.03.2019 13:00:00 -8,6 -22,0 28 15 ENE 60 60
25.03.2019 12:00:00 -7,6 -26,7 18 10 ENE 60 60
25.03.2019 11:00:00 -7,4 -26,5 28 15 ENE 60 60
25.03.2019 10:00:00 -6,6 -28,3 28 15 ENE 60 60
25.03.2019 09:00:00 -6,8 -25,0 28 15 ENE 60 54
25.03.2019 08:00:00 -6,6 -30,0 28 15 NE 60 60
25.03.2019 07:00:00 -6,8 -30,0 18 10 NE 60 0
25.03.2019 06:00:00 -6,6 -29,0 28 15 NE 30 -
25.03.2019 05:00:00 -7,0 -25,1 18 10 NNE 10 -
25.03.2019 04:00:00 -7,0 -23,3 28 15 NNE 10 -
25.03.2019 03:00:00 -6,4 -21,9 18 10 NNE 10 -
25.03.2019 02:00:00 -6,8 -19,7 18 10 NNE 10 -
25.03.2019 01:00:00 -6,6 -17,4 18 10 N 10 -
25.03.2019 00:00:00 -6,0 -16,8 15 8 N 10 -
24.03.2019 23:00:00 -6,0 -16,8 9 5 NNE 10 -
24.03.2019 22:00:00 -6,0 -16,8 15 8 NNE 10 -
24.03.2019 21:00:00 -5,0 -16,5 4 2 - 10 -
24.03.2019 20:00:00 -5,0 -16,8 4 2 - 10 -
24.03.2019 19:00:00 -4,4 -16,0 15 8 SW 60 42
24.03.2019 18:00:00 -3,6 -15,6 9 5 W 60 60
24.03.2019 17:00:00 -2,8 -15,1 5 3 - 60 60
24.03.2019 16:00:00 -2,6 -15,6 4 2 - 60 60
24.03.2019 15:00:00 -1,2 -13,7 0 0 N 60 60
24.03.2019 14:00:00 -0,8 -14,0 5 3 ESE 60 60
24.03.2019 13:00:00 -0,8 -15,1 5 3 - 80 60
24.03.2019 12:00:00 -0,2 -14,5 4 2 - 80 60
24.03.2019 11:00:00 -0,8 -15,4 9 5 S 75 60
24.03.2019 10:00:00 -1,4 -15,2 4 2 - 80 60
24.03.2019 09:00:00 -2,4 -15,4 4 2 N 75 48
24.03.2019 08:00:00 -4,4 -16,0 9 5 S 75 -
24.03.2019 07:00:00 -5,6 -17,1 15 8 S 50 -
24.03.2019 06:00:00 -5,4 -16,9 18 10 S 10 -
24.03.2019 05:00:00 -5,4 -16,9 5 3 N 10 -
24.03.2019 04:00:00 -4,8 -16,6 9 5 S 10 -
24.03.2019 03:00:00 -4,4 -17,6 15 8 S 10 -
24.03.2019 02:00:00 -4,2 -17,0 15 8 ESE 10 -
24.03.2019 01:00:00 -4,4 -16,6 0 0 N 10 -
24.03.2019 00:00:00 -4,8 -14,1 0 0 N 10 -
23.03.2019 23:00:00 -4,4 -16,3 4 2 - 10 -
23.03.2019 22:00:00 -4,0 -15,9 4 2 - 10 -
23.03.2019 21:00:00 -3,2 -16,8 5 3 N 10 -
23.03.2019 20:00:00 -3,2 -15,5 4 2 - 10 -
23.03.2019 19:00:00 -2,8 -16,8 4 2 N 50 42
23.03.2019 18:00:00 -2,0 -16,9 5 3 N 70 60
23.03.2019 17:00:00 -1,0 -17,2 2 1 N 70 60
23.03.2019 16:00:00 0,0 -16,8 4 2 - 70 60
23.03.2019 15:00:00 0,2 -17,5 4 2 - 70 60
23.03.2019 14:00:00 0,8 -17,5 4 2 - 70 60
23.03.2019 13:00:00 0,4 -20,6 0 0 N 60 60
23.03.2019 12:00:00 0,2 -20,7 5 3 N 60 60
23.03.2019 11:00:00 -0,2 -21,7 0 0 N 60 60
23.03.2019 10:00:00 -1,0 -22,3 0 0 N 60 60
23.03.2019 09:00:00 -2,2 -22,7 9 5 E 60 54
23.03.2019 08:00:00 -3,6 -22,3 9 5 E 60 0
23.03.2019 07:00:00 -4,6 -24,2 15 8 E 60 0
23.03.2019 06:00:00 -4,2 -24,4 15 8 ENE 10 -
23.03.2019 05:00:00 -4,0 -23,7 11 6 E 10 -
23.03.2019 04:00:00 -4,0 -23,1 4 2 - 10 -
23.03.2019 03:00:00 -4,0 -23,1 9 5 E 10 -
23.03.2019 02:00:00 -3,8 -23,0 4 2 N 10 -
23.03.2019 01:00:00 -3,8 -22,4 5 3 N 10 -
23.03.2019 00:00:00 -5,0 -24,0 22 12 E 10 -
22.03.2019 23:00:00 -4,4 -25,2 15 8 E 10 -
22.03.2019 22:00:00 -4,0 -25,5 13 7 W 10 -
22.03.2019 21:00:00 -4,0 -25,5 18 10 E 10 -
22.03.2019 20:00:00 -3,6 -24,5 9 5 ENE 10 -
22.03.2019 19:00:00 -4,6 -25,3 9 5 E 60 36
22.03.2019 18:00:00 -4,2 -25,0 5 3 ESE 60 60
22.03.2019 17:00:00 -3,0 -27,6 9 5 ENE 60 60
22.03.2019 16:00:00 -2,4 -27,1 4 2 - 60 -
22.03.2019 15:00:00 -1,8 -28,4 0 0 N 60 60
22.03.2019 14:00:00 -1,8 -29,5 0 0 N 60 60
22.03.2019 13:00:00 -0,8 -28,7 0 0 N 70 60
22.03.2019 12:00:00 0,0 -28,1 11 6 S 70 60
22.03.2019 11:00:00 -1,0 -28,8 5 3 N 70 60
22.03.2019 10:00:00 -1,8 -29,5 9 5 E 70 60
22.03.2019 09:00:00 -3,0 -30,0 0 0 N 70 48
22.03.2019 08:00:00 -5,2 -30,0 9 5 E 70 -
22.03.2019 07:00:00 -6,0 -30,0 18 10 E 70 -
22.03.2019 06:00:00 -5,4 -30,0 9 5 ENE 10 -
22.03.2019 05:00:00 -4,8 -30,0 9 5 ENE 10 -
22.03.2019 04:00:00 -4,8 -30,0 5 3 ENE 10 -
22.03.2019 03:00:00 -5,0 -30,0 5 3 N 10 -
22.03.2019 02:00:00 -5,0 -30,0 0 0 N 10 -
22.03.2019 01:00:00 -4,8 -30,0 5 3 N 10 -
22.03.2019 00:00:00 -5,2 -30,0 5 3 N 10 -
21.03.2019 23:00:00 -5,4 -30,0 9 5 NE 10 -
21.03.2019 22:00:00 -5,6 -30,0 15 8 NE 10 -
21.03.2019 21:00:00 -5,8 -30,0 15 8 ENE 10 -
21.03.2019 20:00:00 -6,2 -30,0 9 5 ENE 10 -
21.03.2019 19:00:00 -6,2 -28,0 18 10 ENE 50 18
21.03.2019 18:00:00 -6,2 -29,4 9 5 NE 70 60
21.03.2019 17:00:00 -5,8 -30,0 9 5 NE 70 60
21.03.2019 16:00:00 -4,2 -30,0 0 0 N 70 60
21.03.2019 15:00:00 -4,2 -30,0 0 0 N 60 60
21.03.2019 14:00:00 -4,8 -30,0 0 0 N 60 60
21.03.2019 13:00:00 -4,6 -30,0 0 0 N 60 60
21.03.2019 12:00:00 -5,8 -30,0 0 0 N 60 60
21.03.2019 11:00:00 -5,6 -30,0 5 3 N 60 60
21.03.2019 10:00:00 -6,0 -30,0 15 8 NNE 60 60
21.03.2019 09:00:00 -6,2 -30,0 15 8 NE 60 60
21.03.2019 08:00:00 -6,8 -30,0 15 8 ENE 60 0
21.03.2019 07:00:00 -7,4 -30,0 18 10 NE 60 0
21.03.2019 06:00:00 -8,0 -30,0 22 12 NE 10 -
21.03.2019 05:00:00 -7,8 -30,0 28 15 NE 10 -
21.03.2019 04:00:00 -7,8 -30,0 26 14 NE 10 -
21.03.2019 03:00:00 -7,4 -30,0 28 15 NNE 10 -
21.03.2019 02:00:00 -7,2 -30,0 28 15 NE 10 -
21.03.2019 01:00:00 -7,2 -30,0 28 15 NE 10 -
21.03.2019 00:00:00 -7,0 -30,0 28 15 NE 10 -
20.03.2019 23:00:00 -6,8 -30,0 28 15 NE 10 -
20.03.2019 22:00:00 -7,0 -30,0 28 15 ENE 10 -
20.03.2019 21:00:00 -7,2 -30,0 28 15 NE 10 -
20.03.2019 20:00:00 -7,0 -30,0 28 15 ENE 10 -

tt = temperature
td = dewpoint
ff = wind speed
dd = wind direction
vv = visibility
sd = sunshine duration

Next stations